createdAt,value
2017-06-14T00:00:41.159Z,78.50
2017-06-14T00:03:08.620Z,78.20
2017-06-14T00:05:36.072Z,78.50
2017-06-14T00:08:03.531Z,78.40
2017-06-14T00:10:30.988Z,77.90
2017-06-14T00:12:58.460Z,77.80
2017-06-14T00:15:25.926Z,77.70
2017-06-14T00:17:53.384Z,77.40
2017-06-14T00:20:20.845Z,78.70
2017-06-14T00:22:48.300Z,78.90
2017-06-14T00:25:15.759Z,78.20
2017-06-14T00:27:43.219Z,78.50
2017-06-14T00:30:10.675Z,79.30
2017-06-14T00:32:38.136Z,79.30
2017-06-14T00:35:05.592Z,78.70
2017-06-14T00:37:33.053Z,78.50
2017-06-14T00:40:00.513Z,78.50
2017-06-14T00:42:27.972Z,79.30
2017-06-14T00:44:55.417Z,78.90
2017-06-14T00:47:22.867Z,78.80
2017-06-14T00:49:50.320Z,79.00
2017-06-14T00:52:17.780Z,78.90
2017-06-14T00:54:45.336Z,79.00
2017-06-14T00:57:12.793Z,79.10
2017-06-14T00:59:40.247Z,79.10
2017-06-14T01:02:07.705Z,79.60
2017-06-14T01:04:35.165Z,79.70
2017-06-14T01:07:02.604Z,79.80
2017-06-14T01:09:30.051Z,80.00
2017-06-14T01:11:58.724Z,80.00
2017-06-14T01:14:26.937Z,79.00
2017-06-14T01:16:54.401Z,79.60
2017-06-14T01:19:21.855Z,79.90
2017-06-14T01:21:49.315Z,80.10
2017-06-14T01:24:16.768Z,80.10
2017-06-14T01:26:44.226Z,79.80
2017-06-14T01:29:11.688Z,79.70
2017-06-14T01:31:39.148Z,80.30
2017-06-14T01:34:06.607Z,80.60
2017-06-14T01:36:34.064Z,80.90
2017-06-14T01:39:01.519Z,80.40
2017-06-14T01:41:28.977Z,80.10
2017-06-14T01:43:56.435Z,80.70
2017-06-14T01:46:23.889Z,80.70
2017-06-14T01:48:51.351Z,80.90
2017-06-14T01:51:18.812Z,81.10
2017-06-14T01:53:46.284Z,81.10
2017-06-14T01:56:13.727Z,81.20
2017-06-14T01:58:41.184Z,81.40
2017-06-14T02:01:08.644Z,80.70
2017-06-14T02:03:36.105Z,80.90
2017-06-14T02:06:03.563Z,80.70
2017-06-14T02:08:31.015Z,80.40
2017-06-14T02:10:58.500Z,80.40
2017-06-14T02:13:25.959Z,80.70
2017-06-14T02:15:53.417Z,80.80
2017-06-14T02:18:20.876Z,81.20
2017-06-14T02:20:48.337Z,81.30
2017-06-14T02:23:15.800Z,80.80
2017-06-14T02:25:43.260Z,80.30
2017-06-14T02:28:10.721Z,80.30
2017-06-14T02:30:38.179Z,79.90
2017-06-14T02:33:05.637Z,80.90
2017-06-14T02:35:33.125Z,80.40
2017-06-14T02:38:00.567Z,81.00
2017-06-14T02:40:28.782Z,81.80
2017-06-14T02:42:56.248Z,81.00
2017-06-14T02:45:23.727Z,80.70
2017-06-14T02:47:51.189Z,81.40
2017-06-14T02:50:18.644Z,81.70
2017-06-14T02:52:46.108Z,81.70
2017-06-14T02:55:13.568Z,81.80
2017-06-14T02:57:41.024Z,81.90
2017-06-14T03:00:08.475Z,82.00
2017-06-14T03:02:36.012Z,81.90
2017-06-14T03:05:03.452Z,82.00
2017-06-14T03:07:30.908Z,81.70
2017-06-14T03:09:58.364Z,81.90
2017-06-14T03:12:25.820Z,81.90
2017-06-14T03:14:53.283Z,81.50
2017-06-14T03:17:20.724Z,81.70
2017-06-14T03:19:48.184Z,80.90
2017-06-14T03:22:16.411Z,81.40
2017-06-14T03:24:43.842Z,81.40
2017-06-14T03:27:11.286Z,80.70
2017-06-14T03:29:38.722Z,80.90
2017-06-14T03:32:06.944Z,81.50
2017-06-14T03:34:34.402Z,81.40
2017-06-14T03:37:01.892Z,81.60
2017-06-14T03:39:29.338Z,82.10
2017-06-14T03:41:58.575Z,82.40
2017-06-14T03:44:26.804Z,81.60
2017-06-14T03:46:54.260Z,81.60
2017-06-14T03:49:21.708Z,82.10
2017-06-14T03:51:49.168Z,81.20
2017-06-14T03:54:16.626Z,81.10
2017-06-14T03:56:44.084Z,81.10
2017-06-14T03:59:11.540Z,81.40
2017-06-14T04:01:39.004Z,82.10
2017-06-14T04:04:06.456Z,82.00
2017-06-14T04:06:33.909Z,82.10
2017-06-14T04:09:01.377Z,82.30
2017-06-14T04:11:28.836Z,82.00
2017-06-14T04:13:56.389Z,81.60
2017-06-14T04:16:23.841Z,82.20
2017-06-14T04:18:51.284Z,81.80
2017-06-14T04:21:18.740Z,81.80
2017-06-14T04:23:46.195Z,82.20
2017-06-14T04:26:13.648Z,81.90
2017-06-14T04:28:41.103Z,82.00
2017-06-14T04:31:09.381Z,82.30
2017-06-14T04:33:37.603Z,82.20
2017-06-14T04:36:05.050Z,82.20
2017-06-14T04:38:32.507Z,81.70
2017-06-14T04:40:59.964Z,82.30
2017-06-14T04:43:27.420Z,82.30
2017-06-14T04:45:54.879Z,82.50
2017-06-14T04:48:22.336Z,82.70
2017-06-14T04:50:49.797Z,82.80
2017-06-14T04:53:17.256Z,83.10
2017-06-14T04:55:44.705Z,82.90
2017-06-14T04:58:12.160Z,82.50
2017-06-14T05:00:39.617Z,82.30
2017-06-14T05:03:07.083Z,82.60
2017-06-14T05:05:34.571Z,82.40
2017-06-14T05:08:02.028Z,82.60
2017-06-14T05:10:29.484Z,82.60
2017-06-14T05:12:56.942Z,82.50
2017-06-14T05:15:24.396Z,82.60
2017-06-14T05:17:51.849Z,82.80
2017-06-14T05:20:19.308Z,82.60
2017-06-14T05:22:46.764Z,82.60
2017-06-14T05:25:14.221Z,83.20
2017-06-14T05:27:41.684Z,82.90
2017-06-14T05:30:09.157Z,82.60
2017-06-14T05:32:36.609Z,82.50
2017-06-14T05:35:04.068Z,82.20
2017-06-14T05:37:31.529Z,81.90
2017-06-14T05:39:58.992Z,81.80
2017-06-14T05:42:26.456Z,81.70
2017-06-14T05:44:53.921Z,81.60
2017-06-14T05:47:21.380Z,81.60
2017-06-14T05:49:49.600Z,81.40
2017-06-14T05:52:17.061Z,81.40
2017-06-14T05:54:44.523Z,81.00
2017-06-14T05:57:11.980Z,80.60
2017-06-14T05:59:39.450Z,80.40
2017-06-14T06:02:06.900Z,80.20
2017-06-14T06:04:34.372Z,80.00
2017-06-14T06:07:01.837Z,80.50
2017-06-14T06:09:29.300Z,79.70
2017-06-14T06:11:58.011Z,79.50
2017-06-14T06:14:26.244Z,79.50
2017-06-14T06:16:53.717Z,79.30
2017-06-14T06:19:21.184Z,79.40
2017-06-14T06:21:48.636Z,79.20
2017-06-14T06:24:16.126Z,78.90
2017-06-14T06:26:44.344Z,78.60
2017-06-14T06:29:11.816Z,78.60
2017-06-14T06:31:39.284Z,78.20
2017-06-14T06:34:06.751Z,77.90
2017-06-14T06:36:34.221Z,77.80
2017-06-14T06:39:01.685Z,77.60
2017-06-14T06:41:29.912Z,77.00
2017-06-14T06:43:57.380Z,76.90
2017-06-14T06:46:24.834Z,76.70
2017-06-14T06:48:52.292Z,76.60
2017-06-14T06:51:19.748Z,76.10
2017-06-14T06:53:47.202Z,76.00
2017-06-14T06:56:14.659Z,75.30
2017-06-14T06:58:42.124Z,75.40
2017-06-14T07:01:09.584Z,74.90
2017-06-14T07:03:37.044Z,74.70
2017-06-14T07:06:04.508Z,73.90
2017-06-14T07:08:31.959Z,73.90
2017-06-14T07:10:59.420Z,73.30
2017-06-14T07:13:26.875Z,73.50
2017-06-14T07:15:54.340Z,73.10
2017-06-14T07:18:21.808Z,72.40
2017-06-14T07:20:49.273Z,72.20
2017-06-14T07:23:16.719Z,72.20
2017-06-14T07:25:44.176Z,71.90
2017-06-14T07:28:11.640Z,71.10
2017-06-14T07:30:39.103Z,71.30
2017-06-14T07:33:06.552Z,70.80
2017-06-14T07:35:34.013Z,70.50
2017-06-14T07:38:01.468Z,70.00
2017-06-14T07:40:29.002Z,69.80
2017-06-14T07:42:56.448Z,69.60
2017-06-14T07:45:23.904Z,69.40
2017-06-14T07:47:51.357Z,68.90
2017-06-14T07:50:18.820Z,68.90
2017-06-14T07:52:46.272Z,67.80
2017-06-14T07:55:13.736Z,67.60
2017-06-14T07:57:41.191Z,67.70
2017-06-14T08:00:08.644Z,67.70
2017-06-14T08:02:36.100Z,67.10
2017-06-14T08:05:03.583Z,67.10
2017-06-14T08:07:31.029Z,66.00
2017-06-14T08:09:58.487Z,66.20
2017-06-14T08:12:25.939Z,66.10
2017-06-14T08:14:53.400Z,65.30
2017-06-14T08:17:20.852Z,64.80
2017-06-14T08:19:48.327Z,65.00
2017-06-14T08:22:15.786Z,65.30
2017-06-14T08:24:43.244Z,65.10
2017-06-14T08:27:10.703Z,63.90
2017-06-14T08:29:38.165Z,63.90
2017-06-14T08:32:05.618Z,63.20
2017-06-14T08:34:33.079Z,63.00
2017-06-14T08:37:00.536Z,60.00
2017-06-14T08:39:28.008Z,60.50
2017-06-14T08:41:55.461Z,59.70
2017-06-14T08:44:22.923Z,60.00
2017-06-14T08:46:50.473Z,58.70
2017-06-14T08:49:17.972Z,59.10
2017-06-14T08:51:45.428Z,58.90
2017-06-14T08:54:12.888Z,58.50
2017-06-14T08:56:40.340Z,58.20
2017-06-14T08:59:07.795Z,57.70
2017-06-14T09:01:35.281Z,57.20
2017-06-14T09:04:03.508Z,56.80
2017-06-14T09:06:31.024Z,56.80
2017-06-14T09:08:58.485Z,56.10
2017-06-14T09:11:25.928Z,54.60
2017-06-14T09:13:54.175Z,55.30
2017-06-14T09:16:21.623Z,55.20
2017-06-14T09:18:49.075Z,55.00
2017-06-14T09:21:16.527Z,53.40
2017-06-14T09:23:43.987Z,53.60
2017-06-14T09:26:11.436Z,54.40
2017-06-14T09:28:38.891Z,54.20
2017-06-14T09:31:06.453Z,54.00
2017-06-14T09:33:33.892Z,54.00
2017-06-14T09:36:01.353Z,53.80
2017-06-14T09:38:28.799Z,52.80
2017-06-14T09:40:57.028Z,52.30
2017-06-14T09:43:24.584Z,52.40
2017-06-14T09:45:52.149Z,52.20
2017-06-14T09:48:19.595Z,52.40
2017-06-14T09:50:47.067Z,51.90
2017-06-14T09:53:14.620Z,52.00
2017-06-14T09:55:42.072Z,51.70
2017-06-14T09:58:09.541Z,50.80
2017-06-14T10:00:36.984Z,51.20
2017-06-14T10:03:04.436Z,51.20
2017-06-14T10:05:31.888Z,49.90
2017-06-14T10:07:59.340Z,49.90
2017-06-14T10:10:26.791Z,48.60
2017-06-14T10:12:54.252Z,49.30
2017-06-14T10:15:21.701Z,49.90
2017-06-14T10:17:49.204Z,49.60
2017-06-14T10:20:16.659Z,49.00
2017-06-14T10:22:44.197Z,47.40
2017-06-14T10:25:11.629Z,48.20
2017-06-14T10:27:39.081Z,48.20
2017-06-14T10:32:44.004Z,48.20
2017-06-14T10:35:11.457Z,47.20
2017-06-14T10:37:38.909Z,47.80
2017-06-14T10:40:06.350Z,46.80
2017-06-14T10:42:33.788Z,46.60
2017-06-14T10:45:01.230Z,46.30
2017-06-14T10:47:28.671Z,46.70
2017-06-14T10:49:56.887Z,46.10
2017-06-14T10:52:24.323Z,46.10
2017-06-14T10:54:51.775Z,46.80
2017-06-14T10:57:19.225Z,47.50
2017-06-14T10:59:47.451Z,46.70
2017-06-14T11:02:14.912Z,46.60
2017-06-14T11:04:42.348Z,44.20
2017-06-14T11:07:09.800Z,43.20
2017-06-14T11:09:37.258Z,43.80
2017-06-14T11:12:04.695Z,43.20
2017-06-14T11:14:32.139Z,42.60
2017-06-14T11:17:00.360Z,38.50
2017-06-14T11:19:27.807Z,39.10
2017-06-14T11:21:55.256Z,35.50
2017-06-14T11:24:22.696Z,33.70
2017-06-14T11:26:50.917Z,30.90
2017-06-14T11:29:18.372Z,30.80
2017-06-14T11:31:45.844Z,30.40
2017-06-14T11:34:13.296Z,29.70
2017-06-14T11:36:40.775Z,29.10
2017-06-14T11:39:08.228Z,28.00
2017-06-14T11:41:35.678Z,27.10
2017-06-14T11:44:03.123Z,27.20
2017-06-14T11:46:30.585Z,26.90
2017-06-14T11:48:58.040Z,25.10
2017-06-14T11:51:25.492Z,26.00
2017-06-14T11:53:52.999Z,27.10
2017-06-14T11:56:21.220Z,26.50
2017-06-14T11:58:48.680Z,26.50
2017-06-14T12:01:16.132Z,26.50
2017-06-14T12:03:43.577Z,27.90
2017-06-14T12:06:11.028Z,28.80
2017-06-14T12:08:38.482Z,29.10
2017-06-14T12:11:05.925Z,28.50
2017-06-14T12:13:34.153Z,27.10
2017-06-14T12:16:01.597Z,27.10
2017-06-14T12:18:29.056Z,26.80
2017-06-14T12:20:56.617Z,26.50
2017-06-14T12:23:24.065Z,25.60
2017-06-14T12:25:51.513Z,25.40
2017-06-14T12:28:18.968Z,26.00
2017-06-14T12:30:46.415Z,25.90
2017-06-14T12:33:14.624Z,24.20
2017-06-14T12:35:42.079Z,24.20
2017-06-14T12:38:09.537Z,25.80
2017-06-14T12:40:36.992Z,25.40
2017-06-14T12:43:04.436Z,25.10
2017-06-14T12:45:31.879Z,25.30
2017-06-14T12:48:00.100Z,25.60
2017-06-14T12:50:27.544Z,25.60
2017-06-14T12:52:55.004Z,25.40
2017-06-14T12:55:22.447Z,25.10
2017-06-14T12:57:49.903Z,24.20
2017-06-14T13:00:17.360Z,24.60
2017-06-14T13:02:44.800Z,24.20
2017-06-14T13:05:13.026Z,24.00
2017-06-14T13:07:40.480Z,24.00
2017-06-14T13:10:07.936Z,24.40
2017-06-14T13:12:35.429Z,23.90
2017-06-14T13:15:02.881Z,24.30
2017-06-14T13:17:30.328Z,25.10
2017-06-14T13:19:57.769Z,25.60
2017-06-14T13:22:25.220Z,25.30
2017-06-14T13:24:52.675Z,24.60
2017-06-14T13:27:20.125Z,24.80
2017-06-14T13:29:47.565Z,24.50
2017-06-14T13:32:15.021Z,24.60
2017-06-14T13:34:42.462Z,24.60
2017-06-14T13:37:09.920Z,25.10
2017-06-14T13:39:38.141Z,25.10
2017-06-14T13:42:05.597Z,24.70
2017-06-14T13:44:33.116Z,24.80
2017-06-14T13:47:01.338Z,24.50
2017-06-14T13:49:28.788Z,24.50
2017-06-14T13:51:56.233Z,24.50
2017-06-14T13:54:23.679Z,24.10
2017-06-14T13:56:51.128Z,24.80
2017-06-14T13:59:18.584Z,25.00
2017-06-14T14:01:46.894Z,24.50
2017-06-14T14:04:14.332Z,24.50
2017-06-14T14:06:41.776Z,24.90
2017-06-14T14:09:10.000Z,24.50
2017-06-14T14:11:37.447Z,24.50
2017-06-14T14:14:04.898Z,24.50
2017-06-14T14:16:32.339Z,24.60
2017-06-14T14:18:59.800Z,24.30
2017-06-14T14:21:27.236Z,24.30
2017-06-14T14:23:54.688Z,24.20
2017-06-14T14:26:22.869Z,24.40
2017-06-14T14:28:50.321Z,24.10
2017-06-14T14:31:17.768Z,24.10
2017-06-14T14:33:45.216Z,23.60
2017-06-14T14:36:12.668Z,23.40
2017-06-14T14:38:40.120Z,23.10
2017-06-14T14:41:07.574Z,23.30
2017-06-14T14:43:35.031Z,23.40
2017-06-14T14:46:02.472Z,23.30
2017-06-14T14:48:29.928Z,23.50
2017-06-14T14:50:57.376Z,23.50
2017-06-14T14:53:24.828Z,23.40
2017-06-14T14:55:52.295Z,23.40
2017-06-14T14:58:19.732Z,22.50
2017-06-14T15:00:47.185Z,22.40
2017-06-14T15:03:14.628Z,22.20
2017-06-14T15:05:42.076Z,21.70
2017-06-14T15:08:09.528Z,21.50
2017-06-14T15:10:36.981Z,21.20
2017-06-14T15:13:04.432Z,21.50
2017-06-14T15:15:31.890Z,21.40
2017-06-14T15:18:00.144Z,21.50
2017-06-14T15:20:27.600Z,21.70
2017-06-14T15:22:55.154Z,21.50
2017-06-14T15:25:22.592Z,21.10
2017-06-14T15:27:50.044Z,20.90
2017-06-14T15:30:18.260Z,21.50
2017-06-14T15:32:45.761Z,21.40
2017-06-14T15:35:13.204Z,21.90
2017-06-14T15:37:40.649Z,22.00
2017-06-14T15:40:08.104Z,21.70
2017-06-14T15:42:35.556Z,21.50
2017-06-14T15:45:03.008Z,20.90
2017-06-14T15:47:30.459Z,21.40
2017-06-14T15:49:57.911Z,21.60
2017-06-14T15:52:25.362Z,21.60
2017-06-14T15:54:52.804Z,22.10
2017-06-14T15:57:20.251Z,21.40
2017-06-14T15:59:48.476Z,21.40
2017-06-14T16:02:15.932Z,21.30
2017-06-14T16:04:43.372Z,21.30
2017-06-14T16:07:10.824Z,21.30
2017-06-14T16:09:38.276Z,21.10
2017-06-14T16:12:05.724Z,21.30
2017-06-14T16:14:33.172Z,21.00
2017-06-14T16:17:01.384Z,20.60
2017-06-14T16:19:28.836Z,20.50
2017-06-14T16:21:56.276Z,20.80
2017-06-14T16:24:23.734Z,20.90
2017-06-14T16:26:51.180Z,20.80
2017-06-14T16:29:18.628Z,20.70
2017-06-14T16:31:46.067Z,20.70
2017-06-14T16:34:13.517Z,20.60
2017-06-14T16:36:40.971Z,21.10
2017-06-14T16:39:08.420Z,21.10
2017-06-14T16:41:35.873Z,21.40
2017-06-14T16:44:03.328Z,21.40
2017-06-14T16:46:30.768Z,21.30
2017-06-14T16:48:58.221Z,21.20
2017-06-14T16:51:25.682Z,21.10
2017-06-14T16:53:53.132Z,20.80
2017-06-14T16:56:20.580Z,21.20
2017-06-14T16:58:48.036Z,21.30
2017-06-14T17:01:15.484Z,21.70
2017-06-14T17:03:42.925Z,21.80
2017-06-14T17:06:10.396Z,22.00
2017-06-14T17:08:37.843Z,22.10
2017-06-14T17:11:05.293Z,22.20
2017-06-14T17:13:32.741Z,22.60
2017-06-14T17:16:00.191Z,22.80
2017-06-14T17:18:27.731Z,23.30
2017-06-14T17:20:55.174Z,23.60
2017-06-14T17:23:22.625Z,23.80
2017-06-14T17:25:50.072Z,24.00
2017-06-14T17:28:18.292Z,23.70
2017-06-14T17:30:45.753Z,23.70
2017-06-14T17:33:13.203Z,23.70
2017-06-14T17:35:40.657Z,23.40
2017-06-14T17:38:08.109Z,23.20
2017-06-14T17:40:35.568Z,23.50
2017-06-14T17:43:03.022Z,23.80
2017-06-14T17:45:30.472Z,24.10
2017-06-14T17:47:57.915Z,24.50
2017-06-14T17:50:25.416Z,24.00
2017-06-14T17:52:52.872Z,24.30
2017-06-14T17:55:20.317Z,24.70
2017-06-14T17:57:47.775Z,25.20
2017-06-14T18:00:15.233Z,25.40
2017-06-14T18:02:42.684Z,25.50
2017-06-14T18:05:10.128Z,25.70
2017-06-14T18:07:37.632Z,25.90
2017-06-14T18:10:05.105Z,26.20
2017-06-14T18:12:32.560Z,26.40
2017-06-14T18:15:00.009Z,26.50
2017-06-14T18:17:27.453Z,26.80
2017-06-14T18:19:54.904Z,27.20
2017-06-14T18:22:22.349Z,27.60
2017-06-14T18:24:49.806Z,28.00
2017-06-14T18:27:17.256Z,28.30
2017-06-14T18:29:44.705Z,28.60
2017-06-14T18:32:12.148Z,29.00
2017-06-14T18:34:39.600Z,29.40
2017-06-14T18:37:07.819Z,30.90
2017-06-14T18:39:35.255Z,30.70
2017-06-14T18:42:02.708Z,31.30
2017-06-14T18:44:30.149Z,32.30
2017-06-14T18:46:58.362Z,34.10
2017-06-14T18:49:25.812Z,34.10
2017-06-14T18:51:53.282Z,34.70
2017-06-14T18:54:20.717Z,35.30
2017-06-14T18:56:48.164Z,35.80
2017-06-14T18:59:16.384Z,36.90
2017-06-14T19:01:43.845Z,36.90
2017-06-14T19:04:11.294Z,37.30
2017-06-14T19:06:38.752Z,38.10
2017-06-14T19:09:06.188Z,39.00
2017-06-14T19:11:33.645Z,41.90
2017-06-14T19:14:01.147Z,42.50
2017-06-14T19:16:28.592Z,43.30
2017-06-14T19:18:56.044Z,44.10
2017-06-14T19:21:32.812Z,44.70
2017-06-14T19:24:05.836Z,44.90
2017-06-14T19:26:33.288Z,45.20
2017-06-14T19:29:00.730Z,45.70
2017-06-14T19:31:28.177Z,46.30
2017-06-14T19:34:10.498Z,46.90
2017-06-14T19:36:43.496Z,47.50
2017-06-14T19:39:10.930Z,48.20
2017-06-14T19:41:38.384Z,48.50
2017-06-14T19:44:05.842Z,49.40
2017-06-14T19:46:33.532Z,49.80
2017-06-14T19:49:00.980Z,50.40
2017-06-14T19:51:28.434Z,50.90
2017-06-14T19:53:55.920Z,51.30
2017-06-14T19:56:23.372Z,51.60
2017-06-14T19:58:50.828Z,52.20
2017-06-14T20:01:18.277Z,52.30
2017-06-14T20:03:45.728Z,52.70
2017-06-14T20:06:13.171Z,52.80
2017-06-14T20:08:40.629Z,53.20
2017-06-14T20:11:08.088Z,53.90
2017-06-14T20:13:35.541Z,54.20
2017-06-14T20:16:02.984Z,55.30
2017-06-14T20:18:30.505Z,55.30
2017-06-14T20:20:57.936Z,55.30
2017-06-14T20:23:25.412Z,55.50
2017-06-14T20:25:52.913Z,56.00
2017-06-14T20:28:20.379Z,57.10
2017-06-14T20:30:47.832Z,57.30
2017-06-14T20:33:15.392Z,57.80
2017-06-14T20:35:42.855Z,57.40
2017-06-14T20:38:10.317Z,57.50
2017-06-14T20:40:37.764Z,57.60
2017-06-14T20:43:05.268Z,57.90
2017-06-14T20:45:32.740Z,58.70
2017-06-14T20:48:00.195Z,58.70
2017-06-14T20:50:27.640Z,58.50
2017-06-14T20:52:55.097Z,58.60
2017-06-14T20:55:22.566Z,59.10
2017-06-14T20:57:50.020Z,59.80
2017-06-14T21:00:17.480Z,59.80
2017-06-14T21:02:44.945Z,59.80
2017-06-14T21:05:12.392Z,60.20
2017-06-14T21:07:39.840Z,60.80
2017-06-14T21:10:07.303Z,61.40
2017-06-14T21:12:34.760Z,61.20
2017-06-14T21:15:02.217Z,60.90
2017-06-14T21:17:29.673Z,61.30
2017-06-14T21:19:57.128Z,61.70
2017-06-14T21:22:24.593Z,62.10
2017-06-14T21:24:52.044Z,62.10
2017-06-14T21:27:19.514Z,62.60
2017-06-14T21:29:46.968Z,62.40
2017-06-14T21:32:14.428Z,62.40
2017-06-14T21:34:41.890Z,62.70
2017-06-14T21:37:09.412Z,62.90
2017-06-14T21:39:36.868Z,63.00
2017-06-14T21:42:04.328Z,63.20
2017-06-14T21:44:31.796Z,63.70
2017-06-14T21:46:59.239Z,64.00
2017-06-14T21:49:26.688Z,64.40
2017-06-14T21:51:54.144Z,64.40
2017-06-14T21:54:21.592Z,64.40
2017-06-14T21:56:49.044Z,64.80
2017-06-14T21:59:16.496Z,65.30
2017-06-14T22:01:44.784Z,65.50
2017-06-14T22:04:12.244Z,65.40
2017-06-14T22:06:39.691Z,65.70
2017-06-14T22:09:07.911Z,67.10
2017-06-14T22:11:35.356Z,66.50
2017-06-14T22:14:02.820Z,66.50
2017-06-14T22:16:30.268Z,66.90
2017-06-14T22:18:57.735Z,67.00
2017-06-14T22:21:25.202Z,67.00
2017-06-14T22:23:52.661Z,67.50
2017-06-14T22:26:20.150Z,68.20
2017-06-14T22:28:47.592Z,68.40
2017-06-14T22:31:15.052Z,68.50
2017-06-14T22:33:42.596Z,68.00
2017-06-14T22:36:10.044Z,68.30
2017-06-14T22:38:37.495Z,68.30
2017-06-14T22:41:04.960Z,67.90
2017-06-14T22:43:32.426Z,67.70
2017-06-14T22:45:59.883Z,68.20
2017-06-14T22:48:27.338Z,68.00
2017-06-14T22:50:54.786Z,68.10
2017-06-14T22:53:22.244Z,68.10
2017-06-14T22:55:49.717Z,68.10
2017-06-14T22:58:17.176Z,68.60
2017-06-14T23:00:44.633Z,68.70
2017-06-14T23:03:12.092Z,68.70
2017-06-14T23:05:39.548Z,68.70
2017-06-14T23:08:07.011Z,69.00
2017-06-14T23:10:34.463Z,68.90
2017-06-14T23:13:02.025Z,68.90
2017-06-14T23:15:29.464Z,69.40
2017-06-14T23:17:56.922Z,69.50
2017-06-14T23:20:24.412Z,69.20
2017-06-14T23:22:51.868Z,69.50
2017-06-14T23:25:19.317Z,69.80
2017-06-14T23:27:46.784Z,70.30
2017-06-14T23:30:14.244Z,70.30
2017-06-14T23:32:41.704Z,70.40
2017-06-14T23:35:09.173Z,70.50
2017-06-14T23:37:36.626Z,71.00
2017-06-14T23:40:04.088Z,71.70
2017-06-14T23:42:31.543Z,71.40
2017-06-14T23:44:59.010Z,71.70
2017-06-14T23:47:26.445Z,72.30
2017-06-14T23:49:53.894Z,72.50
2017-06-14T23:52:21.427Z,72.00
2017-06-14T23:54:48.884Z,72.00
2017-06-14T23:57:16.343Z,71.60
2017-06-14T23:59:43.804Z,71.40
